createdAt,value
2023-04-28T00:02:19.165Z,73.32
2023-04-28T00:04:46.332Z,61.47
2023-04-28T00:07:13.511Z,71.40
2023-04-28T00:09:40.356Z,69.40
2023-04-28T00:12:07.432Z,57.75
2023-04-28T00:14:34.287Z,68.68
2023-04-28T00:17:02.008Z,72.55
2023-04-28T00:19:29.172Z,55.70
2023-04-28T00:21:56.174Z,61.72
2023-04-28T00:24:22.984Z,63.42
2023-04-28T00:26:49.908Z,63.63
2023-04-28T00:29:16.744Z,63.45
2023-04-28T00:31:44.609Z,65.45
2023-04-28T00:34:14.616Z,60.42
2023-04-28T00:36:41.661Z,65.03
2023-04-28T00:39:08.502Z,66.32
2023-04-28T00:41:35.987Z,63.63
2023-04-28T00:44:02.828Z,58.58
2023-04-28T00:46:32.219Z,62.05
2023-04-28T00:49:01.197Z,67.07
2023-04-28T00:51:29.254Z,59.35
2023-04-28T00:53:57.153Z,58.20
2023-04-28T00:56:24.033Z,60.63
2023-04-28T00:58:50.986Z,58.00
2023-04-28T01:01:18.318Z,57.30
2023-04-28T01:03:47.916Z,65.88
2023-04-28T01:06:15.353Z,59.30
2023-04-28T01:08:42.705Z,62.75
2023-04-28T01:11:14.437Z,65.88
2023-04-28T01:13:41.402Z,61.55
2023-04-28T01:16:08.242Z,66.53
2023-04-28T01:18:35.275Z,59.95
2023-04-28T01:21:04.549Z,60.05
2023-04-28T01:23:31.898Z,58.30
2023-04-28T01:25:58.720Z,64.05
2023-04-28T01:28:25.520Z,68.07
2023-04-28T01:30:52.351Z,83.95
2023-04-28T01:33:19.220Z,94.07
2023-04-28T01:35:46.023Z,81.20
2023-04-28T01:38:12.833Z,66.53
2023-04-28T01:40:39.682Z,61.60
2023-04-28T01:43:07.052Z,59.78
2023-04-28T01:45:33.841Z,66.90
2023-04-28T01:48:00.773Z,61.03
2023-04-28T01:50:27.663Z,58.55
2023-04-28T01:52:56.811Z,57.67
2023-04-28T01:55:23.692Z,56.22
2023-04-28T01:57:50.501Z,57.33
2023-04-28T02:00:17.795Z,52.58
2023-04-28T02:02:46.816Z,59.15
2023-04-28T02:05:13.807Z,53.03
2023-04-28T02:07:40.748Z,61.03
2023-04-28T02:10:09.479Z,60.75
2023-04-28T02:12:36.287Z,63.88
2023-04-28T02:15:03.238Z,57.17
2023-04-28T02:17:33.047Z,63.85
2023-04-28T02:19:59.945Z,57.50
2023-04-28T02:22:26.843Z,61.83
2023-04-28T02:24:53.665Z,65.88
2023-04-28T02:27:21.503Z,66.28
2023-04-28T02:29:59.319Z,65.00
2023-04-28T02:32:26.213Z,63.28
2023-04-28T02:34:54.678Z,63.38
2023-04-28T02:37:21.687Z,72.07
2023-04-28T02:39:48.540Z,61.65
2023-04-28T02:42:17.912Z,61.42
2023-04-28T02:44:44.759Z,66.63
2023-04-28T02:47:12.159Z,63.38
2023-04-28T02:49:41.605Z,61.65
2023-04-28T02:52:08.473Z,59.33
2023-04-28T02:54:37.203Z,63.03
2023-04-28T02:57:04.765Z,66.90
2023-04-28T02:59:31.714Z,58.85
2023-04-28T03:01:58.661Z,65.88
2023-04-28T03:04:25.671Z,70.05
2023-04-28T03:06:52.595Z,69.18
2023-04-28T03:09:19.484Z,77.90
2023-04-28T03:11:46.312Z,68.22
2023-04-28T03:14:13.249Z,74.47
2023-04-28T03:16:40.206Z,68.72
2023-04-28T03:19:07.061Z,69.47
2023-04-28T03:21:36.196Z,63.05
2023-04-28T03:24:05.261Z,58.05
2023-04-28T03:26:32.455Z,57.15
2023-04-28T03:28:59.286Z,56.92
2023-04-28T03:31:26.157Z,55.33
2023-04-28T03:33:53.075Z,55.85
2023-04-28T03:36:19.889Z,52.15
2023-04-28T03:38:46.862Z,59.33
2023-04-28T03:41:13.691Z,48.72
2023-04-28T03:43:42.652Z,49.78
2023-04-28T03:46:09.507Z,51.70
2023-04-28T03:48:36.359Z,53.85
2023-04-28T03:51:05.423Z,47.85
2023-04-28T03:53:34.391Z,50.92
2023-04-28T03:56:03.588Z,52.33
2023-04-28T03:58:30.601Z,49.28
2023-04-28T04:00:57.484Z,57.22
2023-04-28T04:03:27.510Z,56.13
2023-04-28T04:05:55.799Z,50.80
2023-04-28T04:08:22.691Z,51.35
2023-04-28T04:10:49.456Z,56.08
2023-04-28T04:13:16.280Z,55.53
2023-04-28T04:15:43.180Z,59.95
2023-04-28T04:18:10.107Z,55.03
2023-04-28T04:20:36.946Z,61.40
2023-04-28T04:23:03.868Z,51.58
2023-04-28T04:25:32.367Z,52.70
2023-04-28T04:27:59.779Z,72.03
2023-04-28T04:30:26.672Z,61.65
2023-04-28T04:32:53.563Z,53.97
2023-04-28T04:35:20.462Z,56.20
2023-04-28T04:37:47.235Z,52.05
2023-04-28T04:40:14.096Z,50.70
2023-04-28T04:42:41.177Z,51.97
2023-04-28T04:45:08.711Z,62.20
2023-04-28T04:47:35.790Z,54.05
2023-04-28T04:50:02.834Z,60.15
2023-04-28T04:52:29.699Z,50.78
2023-04-28T04:54:56.637Z,55.97
2023-04-28T04:57:23.507Z,57.13
2023-04-28T04:59:50.327Z,63.38
2023-04-28T05:02:17.546Z,49.10
2023-04-28T05:04:44.662Z,55.00
2023-04-28T05:07:11.654Z,52.65
2023-04-28T05:09:38.609Z,51.60
2023-04-28T05:12:05.848Z,50.80
2023-04-28T05:14:32.753Z,47.15
2023-04-28T05:16:59.827Z,45.92
2023-04-28T05:19:26.698Z,45.28
2023-04-28T05:21:54.868Z,57.17
2023-04-28T05:24:24.762Z,55.85
2023-04-28T05:26:54.682Z,53.35
2023-04-28T05:29:22.035Z,47.65
2023-04-28T05:31:48.865Z,53.00
2023-04-28T05:34:16.226Z,56.58
2023-04-28T05:36:44.297Z,49.20
2023-04-28T05:39:11.194Z,56.60
2023-04-28T05:41:38.100Z,62.80
2023-04-28T05:44:06.177Z,59.05
2023-04-28T05:46:33.553Z,75.90
2023-04-28T05:49:00.636Z,65.75
2023-04-28T05:51:27.610Z,62.08
2023-04-28T05:53:54.439Z,54.30
2023-04-28T05:56:21.474Z,60.92
2023-04-28T05:58:50.524Z,49.35
2023-04-28T06:01:17.671Z,51.65
2023-04-28T06:03:45.515Z,42.90
2023-04-28T06:06:13.493Z,42.67
2023-04-28T06:08:40.656Z,39.58
2023-04-28T06:11:07.520Z,39.08
2023-04-28T06:13:34.374Z,39.65
2023-04-28T06:16:01.289Z,39.00
2023-04-28T06:18:32.568Z,31.90
2023-04-28T06:20:59.532Z,49.50
2023-04-28T06:23:26.356Z,33.55
2023-04-28T06:25:53.346Z,33.78
2023-04-28T06:28:20.304Z,25.40
2023-04-28T06:30:47.221Z,30.50
2023-04-28T06:33:14.047Z,27.48
2023-04-28T06:35:40.860Z,23.85
2023-04-28T06:38:07.836Z,23.58
2023-04-28T06:40:34.695Z,31.73
2023-04-28T06:43:01.585Z,20.30
2023-04-28T06:45:28.370Z,26.85
2023-04-28T06:48:00.598Z,18.33
2023-04-28T06:50:27.475Z,16.23
2023-04-28T06:52:54.309Z,23.00
2023-04-28T06:55:21.196Z,21.77
2023-04-28T06:57:47.977Z,14.68
2023-04-28T07:00:16.145Z,23.45
2023-04-28T07:02:43.230Z,20.95
2023-04-28T07:05:10.295Z,22.55
2023-04-28T07:07:39.082Z,9.95
2023-04-28T07:10:06.769Z,10.40
2023-04-28T07:12:33.635Z,10.48
2023-04-28T07:15:02.723Z,9.57
2023-04-28T07:17:29.553Z,7.90
2023-04-28T07:19:56.385Z,8.27
2023-04-28T07:22:23.339Z,5.90
2023-04-28T07:24:52.539Z,13.45
2023-04-28T07:27:19.424Z,8.82
2023-04-28T07:29:46.218Z,11.60
2023-04-28T07:32:13.144Z,7.85
2023-04-28T07:34:40.079Z,4.72
2023-04-28T07:37:07.141Z,10.63
2023-04-28T07:39:35.326Z,10.48
2023-04-28T07:42:03.640Z,9.32
2023-04-28T07:44:31.104Z,4.47
2023-04-28T07:46:59.558Z,10.50
2023-04-28T07:49:29.345Z,5.93
2023-04-28T07:51:56.642Z,2.75
2023-04-28T07:54:23.922Z,3.08
2023-04-28T07:56:50.773Z,4.75
2023-04-28T07:59:17.611Z,6.70
2023-04-28T08:01:46.693Z,3.75
2023-04-28T08:04:14.501Z,2.50
2023-04-28T08:06:42.005Z,4.22
2023-04-28T08:09:11.366Z,4.95
2023-04-28T08:11:38.280Z,3.08
2023-04-28T08:14:05.183Z,3.47
2023-04-28T08:16:32.259Z,3.65
2023-04-28T08:19:00.530Z,3.70
2023-04-28T08:21:27.523Z,3.58
2023-04-28T08:23:54.452Z,2.30
2023-04-28T08:26:21.400Z,6.85
2023-04-28T08:28:48.301Z,4.93
2023-04-28T08:31:15.243Z,3.42
2023-04-28T08:33:44.798Z,4.03
2023-04-28T08:36:15.173Z,4.53
2023-04-28T08:38:42.287Z,5.78
2023-04-28T08:41:09.226Z,6.60
2023-04-28T08:43:37.023Z,3.78
2023-04-28T08:46:07.128Z,9.50
2023-04-28T08:48:48.858Z,3.53
2023-04-28T08:51:34.663Z,2.63
2023-04-28T08:54:22.864Z,7.15
2023-04-28T08:56:51.844Z,4.47
2023-04-28T08:59:18.812Z,5.25
2023-04-28T09:01:48.941Z,6.20
2023-04-28T09:04:18.326Z,6.53
2023-04-28T09:06:46.548Z,4.00
2023-04-28T09:09:33.266Z,3.15
2023-04-28T09:12:03.770Z,7.70
2023-04-28T09:14:35.504Z,3.88
2023-04-28T09:19:37.363Z,4.68
2023-04-28T09:22:21.833Z,3.90
2023-04-28T09:24:53.350Z,3.10
2023-04-28T09:27:29.702Z,5.45
2023-04-28T09:29:56.767Z,3.30
2023-04-28T09:32:24.842Z,1.80
2023-04-28T09:34:54.476Z,2.92
2023-04-28T09:37:31.109Z,3.78
2023-04-28T09:40:14.019Z,2.50
2023-04-28T09:42:45.983Z,2.45
2023-04-28T09:45:14.791Z,3.17
2023-04-28T09:47:43.507Z,3.42
2023-04-28T09:50:15.263Z,4.55
2023-04-28T09:55:09.704Z,2.50
2023-04-28T09:57:36.913Z,5.28
2023-04-28T10:00:09.429Z,6.55
2023-04-28T10:05:09.905Z,2.97
2023-04-28T10:07:37.742Z,3.35
2023-04-28T10:10:06.327Z,4.40
2023-04-28T10:12:38.573Z,3.85
2023-04-28T10:15:10.266Z,3.88
2023-04-28T10:17:37.446Z,4.00
2023-04-28T10:20:05.564Z,7.80
2023-04-28T10:22:51.593Z,5.65
2023-04-28T10:25:26.594Z,5.10
2023-04-28T10:27:54.134Z,19.77
2023-04-28T10:30:28.298Z,4.57
2023-04-28T10:33:15.095Z,11.45
2023-04-28T10:35:44.436Z,4.40
2023-04-28T10:38:23.439Z,5.95
2023-04-28T10:40:51.737Z,11.55
2023-04-28T10:43:31.858Z,3.92
2023-04-28T10:46:01.913Z,3.72
2023-04-28T10:48:37.363Z,2.88
2023-04-28T10:51:06.982Z,5.45
2023-04-28T10:53:46.096Z,5.40
2023-04-28T10:56:19.512Z,2.83
2023-04-28T10:58:47.254Z,5.28
2023-04-28T11:01:25.738Z,3.42
2023-04-28T11:04:00.468Z,8.52
2023-04-28T11:06:29.065Z,6.82
2023-04-28T11:08:57.911Z,5.45
2023-04-28T11:11:39.196Z,5.35
2023-04-28T11:14:18.439Z,3.50
2023-04-28T11:17:01.976Z,5.03
2023-04-28T11:19:29.457Z,3.75
2023-04-28T11:21:58.036Z,4.80
2023-04-28T11:24:29.486Z,5.95
2023-04-28T11:26:57.174Z,2.25
2023-04-28T11:29:34.402Z,2.65
2023-04-28T11:32:02.277Z,3.65
2023-04-28T11:34:29.193Z,4.65
2023-04-28T11:36:56.213Z,4.72
2023-04-28T11:39:31.043Z,3.67
2023-04-28T11:41:58.971Z,3.67
2023-04-28T11:44:28.143Z,3.88
2023-04-28T11:46:57.516Z,5.72
2023-04-28T11:49:24.945Z,12.98
2023-04-28T11:51:57.627Z,4.38
2023-04-28T11:54:26.848Z,5.40
2023-04-28T11:56:55.197Z,6.70
2023-04-28T11:59:27.347Z,5.65
2023-04-28T12:01:55.324Z,3.83
2023-04-28T12:04:29.213Z,6.97
2023-04-28T12:07:13.554Z,7.45
2023-04-28T12:09:41.910Z,4.63
2023-04-28T12:12:18.525Z,5.15
2023-04-28T12:14:58.626Z,6.10
2023-04-28T12:17:40.457Z,10.00
2023-04-28T12:22:49.731Z,5.53
2023-04-28T12:25:19.424Z,6.30
2023-04-28T12:28:02.704Z,5.68
2023-04-28T12:30:31.561Z,8.10
2023-04-28T12:32:58.665Z,7.00
2023-04-28T12:35:26.993Z,7.72
2023-04-28T12:37:55.448Z,7.13
2023-04-28T12:40:23.233Z,7.53
2023-04-28T12:42:50.829Z,9.48
2023-04-28T12:45:17.806Z,5.40
2023-04-28T12:47:44.754Z,10.27
2023-04-28T12:50:11.983Z,8.35
2023-04-28T12:52:38.837Z,10.15
2023-04-28T12:55:07.360Z,8.15
2023-04-28T12:57:39.134Z,11.45
2023-04-28T13:00:07.762Z,7.72
2023-04-28T13:02:35.298Z,6.90
2023-04-28T13:05:03.043Z,5.40
2023-04-28T13:07:30.630Z,6.80
2023-04-28T13:09:58.309Z,15.10
2023-04-28T13:12:27.304Z,10.63
2023-04-28T13:14:54.228Z,9.63
2023-04-28T13:17:21.119Z,9.75
2023-04-28T13:19:48.103Z,9.60
2023-04-28T13:22:15.884Z,8.63
2023-04-28T13:24:45.190Z,8.02
2023-04-28T13:27:12.187Z,8.73
2023-04-28T13:29:39.056Z,11.68
2023-04-28T13:32:06.708Z,15.52
2023-04-28T13:34:33.720Z,9.00
2023-04-28T13:37:00.600Z,10.38
2023-04-28T13:39:27.396Z,16.90
2023-04-28T13:41:54.285Z,12.73
2023-04-28T13:44:21.329Z,9.35
2023-04-28T13:46:48.330Z,8.77
2023-04-28T13:49:15.189Z,8.32
2023-04-28T13:51:41.960Z,11.25
2023-04-28T13:54:10.600Z,16.05
2023-04-28T13:56:40.080Z,14.02
2023-04-28T13:59:07.355Z,12.65
2023-04-28T14:01:34.237Z,9.40
2023-04-28T14:04:03.578Z,9.90
2023-04-28T14:06:34.672Z,8.07
2023-04-28T14:09:02.806Z,12.25
2023-04-28T14:11:29.634Z,10.15
2023-04-28T14:13:56.512Z,13.75
2023-04-28T14:16:23.504Z,7.68
2023-04-28T14:18:50.410Z,11.30
2023-04-28T14:21:17.236Z,11.52
2023-04-28T14:23:44.071Z,12.77
2023-04-28T14:26:10.956Z,14.43
2023-04-28T14:28:37.837Z,9.68
2023-04-28T14:31:09.105Z,11.30
2023-04-28T14:33:36.973Z,13.23
2023-04-28T14:36:04.145Z,11.60
2023-04-28T14:38:31.276Z,7.97
2023-04-28T14:40:58.570Z,12.55
2023-04-28T14:43:25.732Z,14.85
2023-04-28T14:45:53.469Z,10.32
2023-04-28T14:48:23.010Z,11.07
2023-04-28T14:50:59.057Z,6.72
2023-04-28T14:53:25.921Z,8.95
2023-04-28T14:55:59.562Z,21.73
2023-04-28T14:58:34.266Z,13.70
2023-04-28T15:01:01.556Z,15.23
2023-04-28T15:03:28.578Z,12.02
2023-04-28T15:05:55.581Z,11.50
2023-04-28T15:08:22.365Z,11.60
2023-04-28T15:10:49.211Z,8.93
2023-04-28T15:13:16.063Z,15.27
2023-04-28T15:15:42.963Z,10.32
2023-04-28T15:18:10.166Z,15.93
2023-04-28T15:20:38.329Z,10.15
2023-04-28T15:23:05.213Z,16.75
2023-04-28T15:25:32.132Z,11.23
2023-04-28T15:27:59.128Z,13.00
2023-04-28T15:30:26.084Z,16.42
2023-04-28T15:32:53.025Z,17.50
2023-04-28T15:35:22.274Z,16.60
2023-04-28T15:37:52.178Z,11.15
2023-04-28T15:40:22.348Z,17.65
2023-04-28T15:42:49.585Z,25.27
2023-04-28T15:45:19.686Z,12.27
2023-04-28T15:47:50.823Z,9.57
2023-04-28T15:50:19.856Z,14.68
2023-04-28T15:52:47.467Z,14.50
2023-04-28T15:55:18.934Z,10.73
2023-04-28T15:57:46.679Z,10.15
2023-04-28T16:00:17.318Z,11.43
2023-04-28T16:02:45.064Z,22.67
2023-04-28T16:05:12.719Z,15.52
2023-04-28T16:07:41.095Z,14.25
2023-04-28T16:10:09.954Z,19.00
2023-04-28T16:12:37.344Z,14.82
2023-04-28T16:15:04.780Z,13.00
2023-04-28T16:17:31.863Z,12.45
2023-04-28T16:19:58.722Z,13.80
2023-04-28T16:22:25.904Z,13.88
2023-04-28T16:24:53.879Z,15.10
2023-04-28T16:27:20.945Z,12.60
2023-04-28T16:29:47.776Z,16.60
2023-04-28T16:32:15.046Z,19.27
2023-04-28T16:34:42.067Z,16.10
2023-04-28T16:37:09.103Z,12.52
2023-04-28T16:39:35.957Z,11.07
2023-04-28T16:42:04.031Z,10.55
2023-04-28T16:44:31.196Z,16.25
2023-04-28T16:46:59.066Z,14.40
2023-04-28T16:49:26.201Z,9.38
2023-04-28T16:52:06.702Z,19.13
2023-04-28T16:54:33.755Z,14.35
2023-04-28T16:57:02.579Z,12.75
2023-04-28T16:59:33.948Z,17.75
2023-04-28T17:02:02.054Z,13.47
2023-04-28T17:04:29.149Z,19.25
2023-04-28T17:06:58.975Z,15.20
2023-04-28T17:09:26.367Z,17.25
2023-04-28T17:11:55.507Z,16.08
2023-04-28T17:14:22.431Z,13.75
2023-04-28T17:16:49.417Z,17.15
2023-04-28T17:19:16.887Z,18.42
2023-04-28T17:21:43.895Z,14.02
2023-04-28T17:24:10.746Z,14.65
2023-04-28T17:29:08.294Z,16.85
2023-04-28T17:31:38.236Z,14.82
2023-04-28T17:34:06.242Z,17.80
2023-04-28T17:36:33.717Z,16.25
2023-04-28T17:39:05.592Z,22.30
2023-04-28T17:41:32.480Z,17.52
2023-04-28T17:43:59.465Z,17.65
2023-04-28T17:46:26.416Z,21.92
2023-04-28T17:48:53.423Z,18.75
2023-04-28T17:51:20.684Z,20.30
2023-04-28T17:53:48.772Z,17.88
2023-04-28T17:56:16.182Z,17.13
2023-04-28T17:58:43.101Z,19.58
2023-04-28T18:01:09.946Z,14.60
2023-04-28T18:03:40.088Z,19.10
2023-04-28T18:06:08.324Z,22.05
2023-04-28T18:08:36.890Z,23.80
2023-04-28T18:11:07.062Z,25.33
2023-04-28T18:13:33.903Z,30.08
2023-04-28T18:16:01.334Z,27.80
2023-04-28T18:18:30.171Z,30.58
2023-04-28T18:20:59.244Z,30.55
2023-04-28T18:23:26.903Z,22.05
2023-04-28T18:25:53.768Z,29.67
2023-04-28T18:28:20.694Z,25.88
2023-04-28T18:30:47.595Z,29.70
2023-04-28T18:33:14.493Z,18.92
2023-04-28T18:35:42.723Z,21.60
2023-04-28T18:38:09.896Z,22.98
2023-04-28T18:40:38.709Z,25.60
2023-04-28T18:43:10.616Z,32.33
2023-04-28T18:45:41.187Z,32.72
2023-04-28T18:48:09.540Z,28.02
2023-04-28T18:50:36.580Z,27.83
2023-04-28T18:53:04.557Z,28.40
2023-04-28T18:55:34.564Z,24.92
2023-04-28T18:58:04.152Z,32.70
2023-04-28T19:00:31.499Z,35.30
2023-04-28T19:02:58.494Z,29.85
2023-04-28T19:05:25.986Z,27.48
2023-04-28T19:07:52.855Z,23.85
2023-04-28T19:10:19.692Z,21.33
2023-04-28T19:12:46.581Z,26.52
2023-04-28T19:15:13.823Z,20.48
2023-04-28T19:17:40.861Z,22.65
2023-04-28T19:20:08.891Z,21.77
2023-04-28T19:22:41.376Z,25.48
2023-04-28T19:25:09.032Z,41.20
2023-04-28T19:27:38.785Z,39.58
2023-04-28T19:30:07.818Z,38.13
2023-04-28T19:32:34.882Z,27.88
2023-04-28T19:35:05.561Z,34.50
2023-04-28T19:37:34.184Z,44.63
2023-04-28T19:40:04.872Z,32.25
2023-04-28T19:42:35.277Z,32.05
2023-04-28T19:45:02.389Z,35.80
2023-04-28T19:47:33.284Z,38.15
2023-04-28T19:50:00.200Z,42.80
2023-04-28T19:52:27.976Z,42.15
2023-04-28T19:54:54.960Z,38.60
2023-04-28T19:57:22.022Z,36.13
2023-04-28T19:59:49.876Z,30.38
2023-04-28T20:02:17.439Z,28.95
2023-04-28T20:04:44.371Z,35.83
2023-04-28T20:07:14.175Z,28.08
2023-04-28T20:09:41.176Z,35.70
2023-04-28T20:12:09.397Z,38.25
2023-04-28T20:14:37.629Z,48.22
2023-04-28T20:17:05.182Z,23.85
2023-04-28T20:19:32.081Z,26.08
2023-04-28T20:21:58.969Z,23.05
2023-04-28T20:24:26.034Z,28.42
2023-04-28T20:26:54.669Z,26.30
2023-04-28T20:29:21.774Z,24.08
2023-04-28T20:31:48.785Z,20.63
2023-04-28T20:34:18.205Z,26.60
2023-04-28T20:36:45.117Z,36.92
2023-04-28T20:39:14.460Z,23.63
2023-04-28T20:41:41.327Z,30.38
2023-04-28T20:44:08.710Z,26.60
2023-04-28T20:46:36.233Z,40.90
2023-04-28T20:49:04.307Z,21.23
2023-04-28T20:51:34.186Z,23.73
2023-04-28T20:54:01.640Z,25.88
2023-04-28T20:56:28.658Z,23.23
2023-04-28T20:58:58.729Z,21.98
2023-04-28T21:01:58.928Z,24.55
2023-04-28T21:04:50.972Z,28.75
2023-04-28T21:09:47.872Z,21.63
2023-04-28T21:12:17.252Z,21.55
2023-04-28T21:14:44.465Z,19.63
2023-04-28T21:17:11.402Z,23.80
2023-04-28T21:19:38.343Z,29.80
2023-04-28T21:22:05.249Z,18.25
2023-04-28T21:24:34.419Z,26.55
2023-04-28T21:27:02.935Z,24.05
2023-04-28T21:29:29.771Z,26.73
2023-04-28T21:31:56.732Z,23.00
2023-04-28T21:34:23.625Z,22.45
2023-04-28T21:36:50.572Z,25.73
2023-04-28T21:39:17.605Z,22.45
2023-04-28T21:41:44.616Z,26.02
2023-04-28T21:44:11.492Z,26.42
2023-04-28T21:46:39.353Z,24.10
2023-04-28T21:49:06.235Z,20.65
2023-04-28T21:51:33.122Z,24.30
2023-04-28T21:53:59.961Z,26.45
2023-04-28T21:56:27.070Z,22.77
2023-04-28T21:58:53.979Z,26.40
2023-04-28T22:01:21.141Z,20.58
2023-04-28T22:03:48.467Z,28.52
2023-04-28T22:06:15.702Z,23.55
2023-04-28T22:08:44.762Z,21.20
2023-04-28T22:11:11.804Z,24.98
2023-04-28T22:13:38.820Z,23.67
2023-04-28T22:16:06.006Z,34.85
2023-04-28T22:18:32.830Z,28.83
2023-04-28T22:21:01.139Z,28.60
2023-04-28T22:23:28.013Z,24.30
2023-04-28T22:25:59.163Z,24.10
2023-04-28T22:28:26.662Z,29.67
2023-04-28T22:30:54.506Z,23.70
2023-04-28T22:33:21.416Z,30.38
2023-04-28T22:35:48.398Z,22.50
2023-04-28T22:38:15.363Z,22.42
2023-04-28T22:40:44.041Z,25.75
2023-04-28T22:43:10.826Z,30.40
2023-04-28T22:45:45.825Z,24.30
2023-04-28T22:48:13.915Z,22.40
2023-04-28T22:50:41.086Z,22.75
2023-04-28T22:53:09.588Z,24.00
2023-04-28T22:55:36.803Z,22.77
2023-04-28T22:58:03.802Z,23.73
2023-04-28T23:00:30.633Z,24.83
2023-04-28T23:02:57.569Z,21.77
2023-04-28T23:05:24.472Z,21.08
2023-04-28T23:07:51.320Z,28.25
2023-04-28T23:10:20.866Z,25.40
2023-04-28T23:12:47.706Z,19.23
2023-04-28T23:15:14.569Z,19.00
2023-04-28T23:17:42.035Z,26.35
2023-04-28T23:20:09.434Z,19.23
2023-04-28T23:22:36.297Z,22.73
2023-04-28T23:25:04.339Z,19.95
2023-04-28T23:27:31.152Z,20.00
2023-04-28T23:29:57.996Z,26.98
2023-04-28T23:32:27.235Z,23.20
2023-04-28T23:34:56.330Z,21.42
2023-04-28T23:37:23.085Z,27.27
2023-04-28T23:39:50.254Z,23.40
2023-04-28T23:42:17.616Z,21.42
2023-04-28T23:44:44.500Z,21.38
2023-04-28T23:47:12.137Z,20.73
2023-04-28T23:49:39.292Z,19.33
2023-04-28T23:52:08.328Z,20.02
2023-04-28T23:54:36.151Z,18.98
2023-04-28T23:57:03.065Z,22.08
2023-04-28T23:59:29.865Z,23.58
